createdAt,value
2018-07-06T00:01:51.800Z,3.77
2018-07-06T00:07:13.451Z,3.90
2018-07-06T00:12:34.879Z,6.17
2018-07-06T00:17:56.766Z,5.50
2018-07-06T00:23:18.253Z,4.97
2018-07-06T00:28:39.903Z,3.13
2018-07-06T00:34:02.392Z,3.10
2018-07-06T00:39:24.246Z,2.97
2018-07-06T00:44:46.554Z,3.63
2018-07-06T00:50:08.351Z,4.60
2018-07-06T00:55:29.959Z,3.37
2018-07-06T01:00:45.940Z,3.30
2018-07-06T01:06:07.404Z,3.70
2018-07-06T01:11:29.007Z,2.63
2018-07-06T01:16:50.538Z,3.37
2018-07-06T01:22:13.110Z,2.50
2018-07-06T01:27:35.126Z,2.50
2018-07-06T01:32:56.627Z,2.23
2018-07-06T01:38:17.979Z,4.70
2018-07-06T01:43:33.454Z,2.43
2018-07-06T01:48:55.009Z,2.50
2018-07-06T01:54:17.756Z,1.90
2018-07-06T01:59:39.238Z,2.53
2018-07-06T02:05:00.875Z,2.20
2018-07-06T02:10:22.263Z,2.43
2018-07-06T02:15:43.979Z,2.30
2018-07-06T02:21:05.590Z,2.27
2018-07-06T02:26:27.147Z,2.20
2018-07-06T02:31:48.681Z,2.60
2018-07-06T02:37:10.303Z,2.50
2018-07-06T02:42:31.858Z,1.97
2018-07-06T02:47:53.378Z,2.33
2018-07-06T02:53:14.911Z,2.10
2018-07-06T02:58:36.631Z,2.10
2018-07-06T03:03:58.252Z,2.40
2018-07-06T03:09:19.796Z,2.20
2018-07-06T03:14:41.350Z,2.93
2018-07-06T03:20:02.820Z,3.33
2018-07-06T03:25:25.478Z,2.20
2018-07-06T03:30:46.852Z,3.03
2018-07-06T03:36:08.491Z,2.67
2018-07-06T03:41:29.968Z,2.33
2018-07-06T03:46:51.433Z,2.37
2018-07-06T03:52:12.837Z,2.07
2018-07-06T03:57:34.237Z,2.93
2018-07-06T04:02:55.518Z,3.20
2018-07-06T04:08:17.089Z,2.30
2018-07-06T04:13:38.698Z,3.00
2018-07-06T04:19:08.941Z,2.80
2018-07-06T04:24:30.907Z,2.37
2018-07-06T04:29:52.500Z,2.43
2018-07-06T04:35:07.830Z,2.63
2018-07-06T04:40:29.086Z,3.07
2018-07-06T04:45:50.507Z,2.27
2018-07-06T04:51:11.937Z,3.00
2018-07-06T04:56:33.546Z,2.40
2018-07-06T05:01:54.887Z,2.97
2018-07-06T05:07:16.311Z,2.20
2018-07-06T05:12:31.941Z,1.73
2018-07-06T05:17:53.386Z,1.90
2018-07-06T05:23:14.956Z,1.60
2018-07-06T05:28:36.306Z,2.53
2018-07-06T05:33:57.750Z,2.80
2018-07-06T05:39:19.342Z,3.47
2018-07-06T05:44:40.728Z,2.27
2018-07-06T05:50:02.364Z,2.27
2018-07-06T05:55:23.805Z,2.50
2018-07-06T06:00:39.370Z,2.00
2018-07-06T06:06:00.803Z,1.37
2018-07-06T06:11:05.400Z,1.30
2018-07-06T06:16:10.138Z,1.73
2018-07-06T06:21:14.743Z,1.40
2018-07-06T06:26:25.027Z,1.40
2018-07-06T06:31:30.569Z,3.00
2018-07-06T06:36:34.941Z,2.07
2018-07-06T06:41:39.765Z,2.47
2018-07-06T06:46:44.611Z,2.03
2018-07-06T06:51:49.294Z,1.80
2018-07-06T06:56:54.399Z,3.50
2018-07-06T07:01:59.367Z,2.13
2018-07-06T07:07:03.966Z,2.10
2018-07-06T07:12:08.734Z,1.40
2018-07-06T07:17:13.708Z,1.80
2018-07-06T07:22:17.973Z,1.80
2018-07-06T07:27:22.770Z,1.43
2018-07-06T07:32:27.367Z,1.60
2018-07-06T07:37:32.059Z,2.43
2018-07-06T07:42:36.561Z,1.60
2018-07-06T07:47:41.150Z,1.60
2018-07-06T07:52:56.852Z,2.43
2018-07-06T07:58:01.459Z,2.47
2018-07-06T08:03:06.335Z,2.70
2018-07-06T08:08:10.995Z,2.77
2018-07-06T08:13:15.583Z,4.43
2018-07-06T08:18:20.358Z,3.40
2018-07-06T08:23:24.975Z,2.40
2018-07-06T08:28:29.621Z,4.30
2018-07-06T08:33:44.815Z,3.17
2018-07-06T08:38:49.427Z,2.47
2018-07-06T08:43:54.092Z,2.10
2018-07-06T08:48:58.717Z,3.37
2018-07-06T08:54:03.483Z,2.37
2018-07-06T08:59:08.131Z,2.83
2018-07-06T09:04:12.958Z,4.23
2018-07-06T09:09:17.758Z,7.67
2018-07-06T09:14:22.462Z,3.33
2018-07-06T09:19:27.041Z,4.80
2018-07-06T09:24:31.745Z,3.97
2018-07-06T09:29:36.385Z,3.50
2018-07-06T09:34:41.370Z,3.23
2018-07-06T09:39:46.779Z,3.07
2018-07-06T09:44:51.547Z,2.40
2018-07-06T09:49:55.878Z,2.50
2018-07-06T09:55:00.653Z,3.13
2018-07-06T10:00:05.927Z,2.37
2018-07-06T10:05:10.512Z,6.50
2018-07-06T10:10:15.128Z,4.67
2018-07-06T10:15:19.774Z,4.50
2018-07-06T10:20:24.451Z,3.77
2018-07-06T10:25:29.084Z,3.77
2018-07-06T10:30:55.663Z,4.00
2018-07-06T10:36:00.335Z,3.03
2018-07-06T10:41:05.038Z,4.77
2018-07-06T10:46:09.767Z,4.28
2018-07-06T10:51:14.105Z,4.40
2018-07-06T10:56:18.649Z,3.90
2018-07-06T11:01:23.289Z,6.27
2018-07-06T11:06:27.973Z,8.80
2018-07-06T11:11:32.852Z,6.90
2018-07-06T11:16:37.466Z,6.47
2018-07-06T11:21:42.239Z,6.03
2018-07-06T11:26:47.198Z,7.20
2018-07-06T11:31:51.562Z,5.03
2018-07-06T11:36:56.219Z,4.37
2018-07-06T11:42:00.919Z,3.63
2018-07-06T11:47:05.552Z,2.97
2018-07-06T11:52:10.294Z,3.70
2018-07-06T11:57:14.963Z,4.57
2018-07-06T12:02:19.605Z,5.63
2018-07-06T12:07:24.245Z,4.90
2018-07-06T12:12:28.553Z,7.57
2018-07-06T12:17:32.933Z,5.03
2018-07-06T12:22:37.610Z,6.43
2018-07-06T12:27:42.199Z,6.40
2018-07-06T12:32:46.513Z,8.07
2018-07-06T12:37:51.163Z,5.87
2018-07-06T12:42:55.819Z,6.83
2018-07-06T12:48:00.279Z,5.10
2018-07-06T12:53:05.017Z,6.77
2018-07-06T12:58:09.589Z,4.35
2018-07-06T13:03:14.125Z,6.13
2018-07-06T13:08:18.745Z,6.43
2018-07-06T13:13:23.390Z,5.17
2018-07-06T13:18:28.069Z,9.13
2018-07-06T13:23:32.685Z,5.05
2018-07-06T13:28:37.434Z,4.70
2018-07-06T13:33:42.066Z,4.57
2018-07-06T13:38:46.803Z,4.00
2018-07-06T13:43:51.402Z,4.47
2018-07-06T13:48:56.251Z,4.60
2018-07-06T13:54:00.554Z,4.23
2018-07-06T13:59:05.249Z,4.50
2018-07-06T14:04:09.900Z,3.57
2018-07-06T14:09:14.918Z,5.17
2018-07-06T14:14:19.495Z,4.43
2018-07-06T14:19:24.078Z,3.77
2018-07-06T14:24:29.254Z,3.83
2018-07-06T14:29:33.830Z,4.30
2018-07-06T14:34:38.536Z,4.80
2018-07-06T14:39:43.179Z,5.87
2018-07-06T14:44:47.807Z,7.13
2018-07-06T14:49:52.362Z,4.10
2018-07-06T14:54:57.232Z,6.43
2018-07-06T15:00:02.065Z,5.15
2018-07-06T15:05:06.433Z,4.23
2018-07-06T15:10:11.752Z,4.10
2018-07-06T15:15:16.721Z,4.92
2018-07-06T15:20:21.372Z,4.22
2018-07-06T15:25:26.116Z,5.80
2018-07-06T15:30:30.675Z,3.07
2018-07-06T15:35:35.308Z,3.20
2018-07-06T15:40:40.110Z,3.27
2018-07-06T15:45:44.943Z,3.42
2018-07-06T15:50:49.873Z,2.30
2018-07-06T15:55:54.432Z,2.67
2018-07-06T16:00:59.183Z,6.20
2018-07-06T16:06:03.635Z,2.97
2018-07-06T16:11:08.235Z,4.42
2018-07-06T16:16:13.303Z,3.15
2018-07-06T16:21:17.993Z,4.03
2018-07-06T16:26:22.719Z,2.72
2018-07-06T16:31:27.409Z,2.40
2018-07-06T16:36:32.282Z,2.23
2018-07-06T16:41:37.054Z,3.53
2018-07-06T16:46:41.601Z,1.93
2018-07-06T16:51:46.261Z,3.27
2018-07-06T16:56:51.376Z,2.60
2018-07-06T17:01:55.732Z,2.43
2018-07-06T17:07:00.310Z,5.20
2018-07-06T17:12:04.872Z,3.03
2018-07-06T17:17:09.440Z,3.73
2018-07-06T17:22:13.740Z,2.57
2018-07-06T17:27:18.337Z,2.37
2018-07-06T17:32:22.914Z,2.40
2018-07-06T17:37:27.482Z,2.70
2018-07-06T17:42:32.062Z,3.87
2018-07-06T17:47:36.857Z,2.62
2018-07-06T17:52:41.524Z,3.30
2018-07-06T17:57:46.143Z,3.27
2018-07-06T18:02:50.800Z,3.17
2018-07-06T18:07:55.472Z,3.20
2018-07-06T18:13:00.032Z,3.13
2018-07-06T18:18:05.434Z,3.33
2018-07-06T18:23:10.464Z,3.30
2018-07-06T18:28:15.346Z,3.40
2018-07-06T18:33:20.003Z,2.57
2018-07-06T18:38:24.878Z,2.62
2018-07-06T18:43:29.431Z,2.30
2018-07-06T18:48:34.587Z,3.30
2018-07-06T18:53:39.947Z,3.60
2018-07-06T18:58:44.896Z,2.10
2018-07-06T19:03:49.986Z,2.00
2018-07-06T19:08:54.608Z,3.07
2018-07-06T19:13:59.755Z,2.40
2018-07-06T19:19:04.548Z,2.80
2018-07-06T19:24:09.185Z,2.73
2018-07-06T19:29:14.009Z,3.00
2018-07-06T19:34:19.292Z,2.97
2018-07-06T19:39:24.452Z,2.40
2018-07-06T19:44:29.659Z,2.57
2018-07-06T19:49:34.391Z,2.40
2018-07-06T19:54:38.968Z,4.50
2018-07-06T19:59:44.424Z,2.07
2018-07-06T20:04:49.091Z,2.37
2018-07-06T20:09:53.833Z,2.30
2018-07-06T20:14:59.074Z,2.13
2018-07-06T20:20:03.415Z,2.43
2018-07-06T20:25:08.711Z,2.47
2018-07-06T20:30:14.656Z,6.60
2018-07-06T20:35:19.350Z,2.40
2018-07-06T20:40:24.180Z,3.00
2018-07-06T20:45:29.028Z,3.55
2018-07-06T20:50:33.851Z,3.97
2018-07-06T20:55:38.414Z,3.23
2018-07-06T21:00:43.179Z,3.00
2018-07-06T21:05:47.964Z,3.57
2018-07-06T21:10:52.654Z,2.17
2018-07-06T21:15:57.418Z,2.60
2018-07-06T21:21:01.976Z,2.70
2018-07-06T21:26:06.369Z,2.50
2018-07-06T21:31:11.008Z,2.50
2018-07-06T21:36:15.728Z,2.57
2018-07-06T21:41:20.366Z,2.67
2018-07-06T21:46:25.176Z,2.13
2018-07-06T21:51:29.954Z,2.50
2018-07-06T21:56:34.885Z,3.67
2018-07-06T22:01:39.665Z,2.60
2018-07-06T22:06:44.643Z,2.33
2018-07-06T22:11:49.374Z,2.17
2018-07-06T22:16:53.955Z,3.00
2018-07-06T22:21:58.957Z,2.35
2018-07-06T22:27:03.874Z,1.83
2018-07-06T22:32:08.591Z,2.83
2018-07-06T22:37:13.364Z,2.70
2018-07-06T22:42:18.331Z,1.73
2018-07-06T22:47:23.160Z,2.80
2018-07-06T22:52:28.074Z,2.17
2018-07-06T22:57:32.816Z,1.07
2018-07-06T23:02:37.417Z,1.60
2018-07-06T23:07:42.276Z,2.97
2018-07-06T23:12:47.155Z,3.40
2018-07-06T23:17:51.451Z,3.03
2018-07-06T23:23:14.388Z,4.07
2018-07-06T23:28:19.826Z,2.33
2018-07-06T23:33:24.232Z,1.90
2018-07-06T23:38:29.013Z,2.10
2018-07-06T23:43:33.654Z,1.97
2018-07-06T23:48:38.459Z,2.90
2018-07-06T23:53:43.259Z,3.20
2018-07-06T23:58:47.956Z,1.50
